Time;durP1;ratioP1;P1;durP2;ratioP2;P2;SDS_P1;SDS_P2;PMS_P1;PMS_P2;Temp;Humidity;BMP_temperature;BMP_pressure;BME280_temperature;BME280_humidity;BME280_pressure;Samples;Min_cycle;Max_cycle;Signal;HPM_P1;HPM_P2
2022/04/01 00:00:42;;;;;;;16.60;13.87;;;6.20;99.90;;;;;;5014810;28;20535;-52
2022/04/01 00:03:10;;;;;;;16.80;12.00;;;6.10;99.90;;;;;;5015035;28;20455;-52
2022/04/01 00:05:39;;;;;;;19.30;13.37;;;6.00;99.90;;;;;;5014533;28;20458;-52
2022/04/01 00:08:06;;;;;;;18.97;12.57;;;6.10;99.90;;;;;;5014753;28;20486;-52
2022/04/01 00:10:34;;;;;;;17.73;13.40;;;6.10;99.90;;;;;;5014304;28;20490;-52
2022/04/01 00:13:03;;;;;;;15.93;13.10;;;6.10;99.90;;;;;;5014388;28;20446;-52
2022/04/01 00:15:31;;;;;;;15.70;12.80;;;6.20;99.90;;;;;;5014759;28;20451;-52
2022/04/01 00:17:58;;;;;;;15.57;12.67;;;6.10;99.90;;;;;;5014697;28;20566;-52
2022/04/01 00:20:27;;;;;;;16.23;11.90;;;6.20;99.90;;;;;;5014512;28;20534;-52
2022/04/01 00:22:54;;;;;;;17.57;13.77;;;6.10;99.90;;;;;;5014591;28;20865;-52
2022/04/01 00:25:22;;;;;;;16.77;11.30;;;6.00;99.90;;;;;;5014360;28;20479;-51
2022/04/01 00:27:50;;;;;;;16.23;12.80;;;6.10;99.90;;;;;;5014411;28;20467;-52
2022/04/01 00:30:20;;;;;;;14.43;10.80;;;6.20;99.90;;;;;;5014315;28;20489;-51
2022/04/01 00:32:47;;;;;;;16.50;12.07;;;6.40;99.90;;;;;;5014537;28;20525;-51
2022/04/01 00:35:15;;;;;;;17.57;13.57;;;6.30;99.90;;;;;;5014741;28;20478;-52
2022/04/01 00:37:42;;;;;;;16.60;12.77;;;6.20;99.90;;;;;;5014254;28;20514;-51
2022/04/01 00:40:12;;;;;;;14.33;12.50;;;6.20;99.90;;;;;;5014313;28;20443;-52
2022/04/01 00:42:40;;;;;;;14.77;12.23;;;6.40;99.90;;;;;;5014383;28;20447;-52
2022/04/01 00:45:10;;;;;;;15.90;12.27;;;6.50;99.90;;;;;;5013897;28;20463;-52
2022/04/01 00:47:39;;;;;;;14.77;11.90;;;6.60;99.90;;;;;;5014103;28;20549;-52
2022/04/01 00:50:08;;;;;;;15.10;13.13;;;6.50;99.90;;;;;;5014218;28;20505;-52
2022/04/01 00:52:35;;;;;;;13.37;11.70;;;6.50;99.90;;;;;;5013756;28;20573;-52
2022/04/01 00:55:03;;;;;;;15.40;11.10;;;6.50;99.90;;;;;;5013708;28;20460;-52
2022/04/01 00:57:32;;;;;;;11.23;10.10;;;6.50;99.90;;;;;;5013777;28;20481;-52
2022/04/01 00:59:59;;;;;;;12.30;9.63;;;6.40;99.90;;;;;;5014340;28;20450;-51
2022/04/01 01:02:26;;;;;;;17.13;12.30;;;6.40;99.90;;;;;;5013823;28;20454;-51
2022/04/01 01:04:56;;;;;;;14.60;11.87;;;6.30;99.90;;;;;;5013938;28;20455;-51
2022/04/01 01:07:23;;;;;;;16.00;11.70;;;6.20;99.90;;;;;;5013654;28;20490;-52
2022/04/01 01:09:51;;;;;;;13.00;10.80;;;6.20;99.90;;;;;;5013476;28;20494;-52
2022/04/01 01:12:18;;;;;;;16.40;11.60;;;6.20;99.90;;;;;;5013529;28;20431;-53
2022/04/01 01:14:46;;;;;;;13.03;10.80;;;6.10;99.90;;;;;;5013573;28;20960;-52
2022/04/01 01:17:14;;;;;;;12.30;10.70;;;6.10;99.90;;;;;;5013716;28;20482;-52
2022/04/01 01:19:45;;;;;;;13.53;10.80;;;6.10;99.90;;;;;;5013463;28;20447;-51
2022/04/01 01:22:14;;;;;;;13.90;11.70;;;6.10;99.90;;;;;;5013854;28;20518;-51
2022/04/01 01:24:43;;;;;;;13.47;10.50;;;6.20;99.90;;;;;;5013320;28;20954;-51
2022/04/01 01:27:13;;;;;;;12.03;9.80;;;6.20;99.90;;;;;;5013392;28;20973;-51
2022/04/01 01:29:41;;;;;;;13.20;10.17;;;6.20;99.90;;;;;;5013275;28;20482;-51
2022/04/01 01:32:11;;;;;;;12.17;9.83;;;6.10;99.90;;;;;;5013381;28;20447;-51
2022/04/01 01:34:40;;;;;;;13.73;10.40;;;6.10;99.90;;;;;;5013544;28;20455;-51
2022/04/01 01:37:10;;;;;;;13.20;10.60;;;6.10;99.90;;;;;;5016328;28;20475;-51
2022/04/01 01:39:37;;;;;;;9.87;8.57;;;5.90;99.90;;;;;;5017733;28;20796;-51
2022/04/01 01:42:07;;;;;;;13.87;9.57;;;5.90;99.90;;;;;;5017245;28;20571;-51
2022/04/01 01:44:34;;;;;;;11.47;10.27;;;6.00;99.90;;;;;;5017303;28;20463;-52
2022/04/01 01:47:02;;;;;;;13.63;10.27;;;5.90;99.90;;;;;;5017506;28;20830;-51
2022/04/01 01:49:29;;;;;;;10.20;9.10;;;6.10;99.90;;;;;;5017629;28;20486;-51
2022/04/01 01:54:44;;;;;;;12.13;9.73;;;6.10;99.90;;;;;;5017211;28;20948;-51
2022/04/01 01:57:16;;;;;;;12.53;9.57;;;6.00;99.90;;;;;;5016910;28;21043;-51
2022/04/01 01:59:43;;;;;;;10.73;8.10;;;6.00;99.90;;;;;;5017036;28;20952;-51
2022/04/01 02:02:11;;;;;;;12.00;10.23;;;6.00;99.90;;;;;;5017138;28;20815;-51
2022/04/01 02:04:40;;;;;;;12.37;9.77;;;5.90;99.90;;;;;;5017128;28;20451;-51
2022/04/01 02:07:08;;;;;;;11.83;10.63;;;5.90;99.90;;;;;;5017156;28;20474;-51
2022/04/01 02:09:36;;;;;;;11.73;9.97;;;5.80;99.90;;;;;;5016723;28;20489;-51
2022/04/01 02:12:03;;;;;;;19.90;10.97;;;5.80;99.90;;;;;;5016755;28;20435;-51
2022/04/01 02:14:32;;;;;;;13.40;10.23;;;5.80;99.90;;;;;;5017011;28;20451;-51
2022/04/01 02:17:03;;;;;;;14.63;10.63;;;5.90;99.90;;;;;;5016682;28;20524;-51
2022/04/01 02:19:31;;;;;;;12.10;10.23;;;5.90;99.90;;;;;;5016836;28;20465;-51
2022/04/01 02:21:59;;;;;;;16.43;10.27;;;5.70;99.90;;;;;;5016498;28;20816;-51
2022/04/01 02:24:26;;;;;;;11.70;9.90;;;5.90;99.90;;;;;;5016903;28;20447;-51
2022/04/01 02:26:53;;;;;;;12.17;10.10;;;6.00;99.90;;;;;;5016543;28;20463;-51
2022/04/01 02:29:22;;;;;;;14.13;11.70;;;6.00;99.90;;;;;;5016624;28;20829;-51
2022/04/01 02:31:51;;;;;;;13.93;10.43;;;5.90;99.90;;;;;;5016692;28;20534;-51
2022/04/01 02:34:19;;;;;;;12.20;10.53;;;5.80;99.90;;;;;;5016306;28;20934;-51
2022/04/01 02:36:46;;;;;;;11.53;10.33;;;5.60;99.90;;;;;;5016148;28;20799;-51
2022/04/01 02:39:14;;;;;;;11.67;10.33;;;5.70;99.90;;;;;;5016353;28;20913;-51
2022/04/01 02:41:41;;;;;;;12.57;11.17;;;5.50;99.90;;;;;;5016199;28;20447;-51
2022/04/01 02:44:12;;;;;;;12.00;10.77;;;5.70;99.90;;;;;;5016425;28;20808;-51
2022/04/01 02:46:43;;;;;;;13.00;10.70;;;5.70;99.90;;;;;;5016022;28;20486;-51
2022/04/01 02:49:13;;;;;;;12.00;10.43;;;5.80;99.90;;;;;;5015970;28;20451;-51
2022/04/01 02:51:42;;;;;;;12.70;10.00;;;5.90;99.90;;;;;;5016235;28;20477;-51
2022/04/01 02:54:10;;;;;;;13.40;10.60;;;6.00;99.90;;;;;;5016249;28;20832;-51
2022/04/01 02:56:39;;;;;;;13.50;10.23;;;5.90;99.90;;;;;;5016038;28;20451;-51
2022/04/01 02:59:08;;;;;;;14.40;10.97;;;5.90;99.90;;;;;;5016111;28;20454;-51
2022/04/01 03:01:36;;;;;;;12.50;10.97;;;5.80;99.90;;;;;;5016046;28;20443;-51
2022/04/01 03:04:04;;;;;;;11.40;10.00;;;5.60;99.90;;;;;;5016128;28;20455;-50
2022/04/01 03:06:34;;;;;;;12.43;10.30;;;5.50;99.90;;;;;;5015782;28;20509;-51
2022/04/01 03:09:01;;;;;;;15.30;11.20;;;5.60;99.90;;;;;;5015956;28;20537;-51
2022/04/01 03:11:28;;;;;;;16.20;11.13;;;5.60;99.90;;;;;;5015417;28;20494;-51
2022/04/01 03:13:55;;;;;;;13.93;11.30;;;5.70;99.90;;;;;;5016016;28;20451;-51
2022/04/01 03:16:23;;;;;;;14.20;11.23;;;5.90;99.90;;;;;;5015526;28;20506;-51
2022/04/01 03:18:50;;;;;;;11.73;10.50;;;5.90;99.90;;;;;;5015691;28;20479;-51
2022/04/01 03:21:17;;;;;;;12.27;10.63;;;5.90;99.90;;;;;;5015849;28;20469;-51
2022/04/01 03:23:47;;;;;;;14.33;12.37;;;5.90;99.90;;;;;;5015413;28;20447;-51
2022/04/01 03:26:14;;;;;;;13.17;10.20;;;5.90;99.90;;;;;;5015341;28;20462;-51
2022/04/01 03:28:41;;;;;;;13.13;11.30;;;5.90;99.90;;;;;;5015330;28;20829;-51
2022/04/01 03:31:09;;;;;;;13.77;12.30;;;5.80;99.90;;;;;;5015353;28;20491;-51
2022/04/01 03:33:38;;;;;;;13.20;11.30;;;5.70;99.90;;;;;;5015107;28;20490;-51
2022/04/01 03:36:05;;;;;;;13.47;10.77;;;5.70;99.90;;;;;;5015261;28;20489;-51
2022/04/01 03:38:32;;;;;;;15.47;10.50;;;5.70;99.90;;;;;;5015499;28;20965;-51
2022/04/01 03:41:03;;;;;;;13.97;11.10;;;5.80;99.90;;;;;;5015018;28;20483;-51
2022/04/01 03:43:30;;;;;;;15.97;11.50;;;5.70;99.90;;;;;;5015317;28;20431;-51
2022/04/01 03:45:59;;;;;;;13.90;11.87;;;5.80;99.90;;;;;;5015366;28;20451;-51
2022/04/01 03:48:31;;;;;;;13.40;11.47;;;5.80;99.90;;;;;;5015125;28;20533;-50
2022/04/01 03:50:59;;;;;;;14.43;11.67;;;5.60;99.90;;;;;;5014891;28;20888;-50
2022/04/01 03:53:28;;;;;;;16.20;12.00;;;5.70;99.90;;;;;;5015271;28;20451;-50
2022/04/01 03:55:57;;;;;;;15.80;11.87;;;5.60;99.90;;;;;;5015111;28;20455;-50
2022/04/01 03:58:29;;;;;;;17.80;13.40;;;5.30;99.90;;;;;;5014085;28;20480;-50
2022/04/01 04:01:00;;;;;;;17.80;13.37;;;5.50;99.90;;;;;;5014969;28;20423;-50
2022/04/01 04:03:29;;;;;;;16.30;12.93;;;5.50;99.90;;;;;;5014782;28;20894;-49
2022/04/01 04:05:57;;;;;;;16.27;12.60;;;5.60;99.90;;;;;;5014540;28;20956;-51
2022/04/01 04:08:26;;;;;;;19.77;14.70;;;5.60;99.90;;;;;;5014876;28;20529;-51
2022/04/01 04:10:54;;;;;;;17.17;13.80;;;5.50;99.90;;;;;;5014326;28;21045;-51
2022/04/01 04:13:25;;;;;;;15.97;13.57;;;5.40;99.90;;;;;;5014467;28;20930;-51
2022/04/01 04:16:05;;;;;;;19.20;12.90;;;5.40;99.90;;;;;;5014678;28;20534;-50
2022/04/01 04:18:42;;;;;;;19.60;15.03;;;5.30;99.90;;;;;;5014578;28;20470;-50
2022/04/01 04:21:17;;;;;;;17.43;14.17;;;5.30;99.90;;;;;;5014537;28;20459;-51
2022/04/01 04:23:48;;;;;;;17.87;14.00;;;5.20;99.90;;;;;;5014685;28;20432;-50
2022/04/01 04:26:17;;;;;;;18.13;14.17;;;5.40;99.90;;;;;;5014561;28;20448;-51
2022/04/01 04:28:50;;;;;;;20.00;14.07;;;5.30;99.90;;;;;;5014389;28;20471;-50
2022/04/01 04:31:36;;;;;;;17.13;13.20;;;5.20;99.90;;;;;;5013926;28;20521;-50
2022/04/01 04:34:05;;;;;;;18.60;12.87;;;5.10;99.90;;;;;;5013751;28;20993;-51
2022/04/01 04:36:38;;;;;;;14.10;12.60;;;5.30;99.90;;;;;;5014375;28;20447;-50
2022/04/01 04:39:07;;;;;;;14.73;13.20;;;5.30;99.90;;;;;;5014176;28;20523;-51
2022/04/01 04:41:35;;;;;;;15.77;12.00;;;5.20;99.90;;;;;;5014175;28;20451;-50
2022/04/01 04:44:03;;;;;;;15.90;11.30;;;5.20;99.90;;;;;;5014129;28;20447;-51
2022/04/01 04:46:32;;;;;;;15.00;11.47;;;5.30;99.90;;;;;;5013982;28;20456;-51
2022/04/01 04:48:59;;;;;;;16.27;12.27;;;5.20;99.90;;;;;;5014088;28;20474;-51
2022/04/01 04:51:28;;;;;;;13.43;10.57;;;5.20;99.90;;;;;;5013725;28;20535;-51
2022/04/01 04:53:59;;;;;;;13.97;9.80;;;5.40;99.90;;;;;;5014174;28;20459;-50
2022/04/01 04:56:27;;;;;;;15.03;10.90;;;5.40;99.90;;;;;;5013781;28;20431;-50
2022/04/01 04:58:56;;;;;;;12.20;10.27;;;5.20;99.90;;;;;;5013538;28;20550;-52
2022/04/01 05:01:38;;;;;;;12.73;10.03;;;5.30;99.90;;;;;;5013962;28;20444;-50
2022/04/01 05:04:32;;;;;;;12.50;9.90;;;5.40;99.90;;;;;;5014057;28;20435;-50
2022/04/01 05:07:10;;;;;;;12.77;10.70;;;5.30;99.90;;;;;;5013521;28;21060;-51
2022/04/01 05:09:46;;;;;;;16.30;11.97;;;5.30;99.90;;;;;;5013222;28;20483;-51
2022/04/01 05:12:25;;;;;;;19.20;12.03;;;5.40;99.90;;;;;;5013388;28;20482;-51
2022/04/01 05:15:04;;;;;;;15.10;12.93;;;5.20;99.90;;;;;;5013908;28;20435;-50
2022/04/01 05:17:36;;;;;;;15.70;11.87;;;4.90;99.90;;;;;;5013600;28;20498;-51
2022/04/01 05:20:11;;;;;;;16.37;11.80;;;4.80;99.90;;;;;;5013305;28;20432;-51
2022/04/01 05:22:48;;;;;;;16.70;11.23;;;4.60;99.90;;;;;;5013443;28;20538;-50
2022/04/01 05:25:20;;;;;;;16.43;12.50;;;4.60;99.90;;;;;;5013334;28;20439;-51
2022/04/01 05:27:50;;;;;;;14.50;10.70;;;4.40;99.90;;;;;;5013679;28;20471;-51
2022/04/01 05:30:20;;;;;;;16.20;11.67;;;4.70;99.90;;;;;;5013234;28;20451;-51
2022/04/01 05:33:01;;;;;;;15.20;12.00;;;4.70;99.90;;;;;;5013070;28;20937;-51
2022/04/01 05:35:30;;;;;;;18.23;14.33;;;4.80;99.90;;;;;;5012862;28;20486;-51
2022/04/01 05:37:59;;;;;;;19.80;14.63;;;4.80;99.90;;;;;;5013561;28;20482;-50
2022/04/01 05:40:28;;;;;;;22.67;15.37;;;4.70;99.90;;;;;;5012896;28;20877;-51
2022/04/01 05:42:56;;;;;;;15.27;11.33;;;4.60;99.90;;;;;;5013722;28;20450;-51
2022/04/01 05:45:27;;;;;;;14.93;12.00;;;4.50;99.90;;;;;;5012751;28;20973;-50
2022/04/01 05:47:55;;;;;;;14.40;10.97;;;4.50;99.90;;;;;;5013489;28;20854;-50
2022/04/01 05:50:25;;;;;;;14.17;11.03;;;4.50;99.90;;;;;;5013242;28;20451;-51
2022/04/01 05:52:54;;;;;;;16.90;12.20;;;4.50;99.90;;;;;;5012741;28;20447;-50
2022/04/01 05:55:23;;;;;;;14.57;10.80;;;4.40;99.90;;;;;;5013104;28;20854;-50
2022/04/01 05:57:51;;;;;;;16.43;12.87;;;4.50;99.90;;;;;;5013286;28;20529;-51
2022/04/01 06:00:18;;;;;;;15.77;12.07;;;4.50;99.90;;;;;;5013308;28;20505;-51
2022/04/01 06:03:17;;;;;;;13.30;11.07;;;4.60;99.90;;;;;;5013191;28;20454;-51
2022/04/01 06:05:51;;;;;;;16.00;12.13;;;4.60;99.90;;;;;;4988820;28;20534;-51
2022/04/01 06:08:34;;;;;;;17.90;13.63;;;4.80;99.90;;;;;;5013410;28;20474;-51
2022/04/01 06:11:10;;;;;;;15.57;12.20;;;4.70;99.90;;;;;;5012666;28;20993;-51
2022/04/01 06:13:47;;;;;;;12.87;11.57;;;4.40;99.90;;;;;;5013314;28;20521;-51
2022/04/01 06:16:25;;;;;;;13.77;10.83;;;4.50;99.90;;;;;;5012841;28;20439;-51
2022/04/01 06:19:06;;;;;;;18.90;12.67;;;4.50;99.90;;;;;;5012767;28;20478;-51
2022/04/01 06:21:43;;;;;;;12.47;10.27;;;4.50;99.90;;;;;;5013045;28;20886;-51
2022/04/01 06:24:12;;;;;;;13.90;11.87;;;4.60;99.90;;;;;;5016631;28;20537;-51
2022/04/01 06:26:41;;;;;;;16.80;12.93;;;4.60;99.90;;;;;;5016372;28;20987;-51
2022/04/01 06:29:25;;;;;;;15.40;12.97;;;4.60;99.90;;;;;;5016738;28;20439;-51
2022/04/01 06:31:57;;;;;;;15.67;13.20;;;4.50;99.90;;;;;;5016290;28;20562;-51
2022/04/01 06:34:35;;;;;;;19.33;14.13;;;4.40;99.90;;;;;;5016094;28;21002;-51
2022/04/01 06:37:05;;;;;;;17.17;13.03;;;4.20;99.90;;;;;;5016380;28;20474;-50
2022/04/01 06:39:43;;;;;;;16.53;13.80;;;4.40;99.90;;;;;;5016361;28;20459;-50
2022/04/01 06:42:19;;;;;;;15.70;12.20;;;4.40;99.90;;;;;;5016398;28;20522;-51
2022/04/01 06:44:47;;;;;;;19.20;13.40;;;4.50;99.90;;;;;;5016240;28;20489;-50
2022/04/01 06:47:14;;;;;;;18.53;13.70;;;4.60;99.90;;;;;;5015668;28;21064;-51
2022/04/01 06:49:42;;;;;;;14.70;12.60;;;4.50;99.90;;;;;;5016029;28;20463;-50
2022/04/01 06:52:11;;;;;;;16.40;12.77;;;4.30;99.90;;;;;;5015877;28;20486;-51
2022/04/01 06:54:38;;;;;;;16.27;12.07;;;4.20;99.90;;;;;;5015913;28;20461;-51
2022/04/01 06:57:06;;;;;;;17.80;12.87;;;4.30;99.90;;;;;;5016016;28;20478;-51
2022/04/01 06:59:34;;;;;;;16.50;13.27;;;4.40;99.90;;;;;;5015891;28;20501;-50
2022/04/01 07:02:01;;;;;;;17.90;14.10;;;4.30;99.90;;;;;;5015943;28;20458;-51
2022/04/01 07:04:28;;;;;;;19.13;13.50;;;4.30;99.90;;;;;;5015501;28;20458;-50
2022/04/01 07:06:56;;;;;;;17.80;14.10;;;4.40;99.90;;;;;;5015654;28;20461;-50
2022/04/01 07:09:25;;;;;;;16.80;13.70;;;4.50;99.90;;;;;;5015664;28;20447;-51
2022/04/01 07:11:53;;;;;;;18.43;14.47;;;4.50;99.90;;;;;;5015411;28;20573;-50
2022/04/01 07:14:20;;;;;;;16.87;14.20;;;4.40;99.90;;;;;;5015431;28;20456;-51
2022/04/01 07:16:47;;;;;;;19.10;13.83;;;4.00;99.90;;;;;;5015630;28;20534;-51
2022/04/01 07:19:15;;;;;;;19.13;16.20;;;3.90;99.90;;;;;;5015347;28;20996;-50
2022/04/01 07:21:42;;;;;;;18.83;13.90;;;4.10;99.90;;;;;;5015079;28;20458;-50
2022/04/01 07:24:09;;;;;;;17.07;13.07;;;4.20;99.90;;;;;;5015540;28;20538;-51
2022/04/01 07:26:38;;;;;;;20.03;15.10;;;4.40;99.90;;;;;;5015460;28;20531;-51
2022/04/01 07:29:06;;;;;;;15.70;13.57;;;4.50;99.90;;;;;;5015068;28;20447;-50
2022/04/01 07:34:26;;;;;;;16.90;14.53;;;4.60;99.90;;;;;;5014177;28;20407;-52
2022/04/01 07:36:53;;;;;;;18.07;14.27;;;4.60;99.90;;;;;;5015089;28;20459;-50
2022/04/01 07:39:21;;;;;;;16.37;13.60;;;4.20;99.90;;;;;;5015452;28;20818;-50
2022/04/01 07:41:50;;;;;;;19.13;14.67;;;4.30;99.90;;;;;;5015031;28;20455;-50
2022/04/01 07:44:17;;;;;;;14.70;12.70;;;4.40;99.90;;;;;;5014911;28;20448;-51
2022/04/01 07:46:45;;;;;;;19.83;14.73;;;4.40;99.90;;;;;;5015022;28;20451;-51
2022/04/01 07:49:12;;;;;;;19.80;15.10;;;4.40;99.90;;;;;;5014933;28;20451;-51
2022/04/01 07:51:39;;;;;;;17.30;13.87;;;4.40;99.90;;;;;;5014820;28;20509;-51
2022/04/01 07:54:06;;;;;;;19.93;15.40;;;4.30;99.90;;;;;;5014558;28;20494;-51
2022/04/01 07:56:36;;;;;;;16.80;14.60;;;4.10;99.90;;;;;;5014899;28;20782;-51
2022/04/01 07:59:06;;;;;;;18.07;14.47;;;4.10;99.90;;;;;;5014999;28;20981;-50
2022/04/01 08:01:34;;;;;;;18.10;15.43;;;4.10;99.90;;;;;;5014521;28;20447;-51
2022/04/01 08:04:01;;;;;;;19.53;14.70;;;4.10;99.90;;;;;;5014498;28;20513;-53
2022/04/01 08:06:29;;;;;;;19.43;14.20;;;4.10;99.90;;;;;;5014580;28;20451;-51
2022/04/01 08:08:58;;;;;;;16.60;13.73;;;4.20;99.90;;;;;;5014455;28;20831;-51
2022/04/01 08:11:25;;;;;;;16.90;12.77;;;4.10;99.90;;;;;;5014340;28;20479;-51
2022/04/01 08:13:53;;;;;;;22.13;14.40;;;4.30;99.90;;;;;;5014831;28;20909;-51
2022/04/01 08:16:22;;;;;;;19.47;14.40;;;4.40;99.90;;;;;;5014324;28;20811;-51
2022/04/01 08:18:49;;;;;;;21.73;14.90;;;4.50;99.90;;;;;;5014432;28;20471;-51
2022/04/01 08:21:17;;;;;;;16.47;11.90;;;4.40;99.90;;;;;;5014193;28;21121;-51
2022/04/01 08:23:45;;;;;;;18.00;13.40;;;4.40;99.90;;;;;;5014192;28;20823;-51
2022/04/01 08:26:12;;;;;;;15.20;12.50;;;4.60;99.90;;;;;;5014424;28;20454;-54
2022/04/01 08:28:40;;;;;;;17.47;14.73;;;4.70;99.90;;;;;;5014204;28;20475;-51
2022/04/01 08:31:09;;;;;;;20.27;15.80;;;4.70;99.90;;;;;;5014338;28;20452;-51
2022/04/01 08:33:38;;;;;;;21.77;15.37;;;4.80;99.90;;;;;;5013976;28;20490;-51
2022/04/01 08:36:06;;;;;;;15.27;12.23;;;4.70;99.90;;;;;;5014002;28;20533;-51
2022/04/01 08:38:33;;;;;;;16.13;13.13;;;4.80;99.90;;;;;;5014304;28;20479;-51
2022/04/01 08:41:00;;;;;;;19.00;13.07;;;4.80;99.90;;;;;;5014087;28;20451;-51
2022/04/01 08:43:29;;;;;;;17.20;14.87;;;4.90;99.90;;;;;;5014091;28;20454;-52
2022/04/01 08:45:57;;;;;;;14.77;13.27;;;4.70;99.90;;;;;;5014060;28;20866;-51
2022/04/01 08:48:25;;;;;;;13.17;11.77;;;4.60;99.90;;;;;;5014236;28;20826;-51
2022/04/01 08:50:54;;;;;;;14.50;12.23;;;4.70;99.90;;;;;;5013998;28;20455;-51
2022/04/01 08:53:22;;;;;;;20.10;15.30;;;4.60;99.90;;;;;;5013605;28;20514;-51
2022/04/01 08:55:50;;;;;;;18.70;13.77;;;4.70;99.90;;;;;;5011234;28;20447;-51
2022/04/01 08:58:19;;;;;;;15.47;13.63;;;4.60;99.90;;;;;;5005519;28;20517;-51
2022/04/01 09:00:47;;;;;;;19.80;15.73;;;4.50;99.90;;;;;;5011777;28;20929;-49
2022/04/01 09:03:16;;;;;;;14.33;12.60;;;4.60;99.90;;;;;;5012335;28;20447;-52
2022/04/01 09:05:51;;;;;;;16.17;12.90;;;4.40;99.90;;;;;;4996685;28;20444;-49
2022/04/01 09:08:24;;;;;;;13.37;11.27;;;4.40;99.90;;;;;;5010759;28;20478;-47
2022/04/01 09:10:57;;;;;;;14.13;12.07;;;4.40;99.90;;;;;;5006377;28;20567;-48
2022/04/01 09:13:27;;;;;;;16.30;12.20;;;4.30;99.90;;;;;;5012102;28;20491;-49
2022/04/01 09:15:55;;;;;;;14.10;11.80;;;4.40;99.90;;;;;;5011720;28;21018;-49
2022/04/01 09:18:40;;;;;;;15.77;12.63;;;4.50;99.90;;;;;;5011412;28;20509;-49
2022/04/01 09:21:09;;;;;;;14.27;11.87;;;4.60;99.90;;;;;;5011784;28;20435;-48
2022/04/01 09:23:37;;;;;;;13.93;12.30;;;4.60;99.90;;;;;;5011721;28;20450;-48
2022/04/01 09:26:06;;;;;;;16.87;13.40;;;4.70;99.90;;;;;;5011178;28;20446;-48
2022/04/01 09:28:35;;;;;;;16.50;12.40;;;4.60;99.90;;;;;;5012111;28;20521;-48
2022/04/01 09:31:07;;;;;;;16.20;13.40;;;4.30;99.90;;;;;;5013376;28;20455;-49
2022/04/01 09:33:49;;;;;;;13.03;11.63;;;4.50;99.90;;;;;;5012794;28;21051;-48
2022/04/01 09:36:25;;;;;;;13.97;11.30;;;4.50;99.90;;;;;;5013206;28;20542;-48
2022/04/01 09:38:56;;;;;;;16.00;13.73;;;4.70;99.90;;;;;;5013089;28;21037;-48
2022/04/01 09:41:33;;;;;;;12.13;10.73;;;4.80;99.90;;;;;;5013444;28;20432;-49
2022/04/01 09:44:05;;;;;;;13.17;10.80;;;4.60;99.90;;;;;;5013122;28;20932;-48
2022/04/01 09:46:33;;;;;;;13.30;11.13;;;4.70;99.90;;;;;;5013092;28;20522;-48
2022/04/01 09:49:01;;;;;;;12.33;11.03;;;4.50;99.90;;;;;;5013209;28;20826;-48
2022/04/01 09:51:32;;;;;;;12.40;10.20;;;4.50;99.90;;;;;;5013280;28;20454;-48
2022/04/01 09:54:04;;;;;;;14.83;12.70;;;4.40;99.90;;;;;;5013286;28;20483;-48
2022/04/01 09:56:43;;;;;;;12.77;10.27;;;4.50;99.90;;;;;;5013595;28;20514;-49
2022/04/01 09:59:11;;;;;;;13.90;10.80;;;4.40;99.90;;;;;;5016782;28;20431;-48
2022/04/01 10:01:40;;;;;;;12.27;11.10;;;4.40;99.90;;;;;;5016993;28;20791;-48
2022/04/01 10:04:08;;;;;;;11.70;10.00;;;4.40;99.90;;;;;;5017132;28;20451;-48
2022/04/01 10:06:37;;;;;;;11.87;10.63;;;4.50;99.90;;;;;;5016861;28;20929;-48
2022/04/01 10:09:08;;;;;;;11.43;10.20;;;4.50;99.90;;;;;;5016605;28;20475;-49
2022/04/01 10:11:36;;;;;;;12.90;10.40;;;4.70;99.90;;;;;;5015171;28;20511;-49
2022/04/01 10:14:07;;;;;;;12.87;10.40;;;4.50;99.90;;;;;;5016817;28;20574;-49
2022/04/01 10:16:36;;;;;;;12.50;10.10;;;4.50;99.90;;;;;;5016298;28;20949;-49
2022/04/01 10:19:13;;;;;;;10.10;8.77;;;4.70;99.90;;;;;;5016709;28;20471;-49
2022/04/01 10:21:43;;;;;;;10.23;9.00;;;4.70;99.90;;;;;;5016402;28;20438;-48
2022/04/01 10:24:23;;;;;;;9.93;7.10;;;4.50;99.90;;;;;;5016650;28;20816;-49
2022/04/01 10:27:11;;;;;;;14.80;11.50;;;4.50;99.90;;;;;;5016390;28;20435;-48
2022/04/01 10:29:38;;;;;;;7.30;6.50;;;4.30;99.90;;;;;;5016494;28;20431;-48
2022/04/01 10:32:23;;;;;;;6.50;5.90;;;4.50;99.90;;;;;;5016324;28;20514;-48
2022/04/01 10:34:53;;;;;;;7.27;6.57;;;4.60;99.90;;;;;;5016238;28;20450;-48
2022/04/01 10:37:21;;;;;;;7.50;6.80;;;4.50;99.90;;;;;;5016118;28;20573;-49
2022/04/01 10:39:52;;;;;;;6.43;5.83;;;4.60;99.90;;;;;;5015775;28;20451;-48
2022/04/01 10:42:19;;;;;;;5.70;5.20;;;4.50;99.90;;;;;;5016344;28;20443;-48
2022/04/01 10:44:52;;;;;;;5.67;4.93;;;4.60;99.90;;;;;;5016028;28;20550;-48
2022/04/01 10:47:22;;;;;;;6.40;5.70;;;4.60;99.90;;;;;;5015829;28;20475;-49
2022/04/01 10:52:34;;;;;;;5.70;5.20;;;4.60;99.90;;;;;;5016040;28;20945;-48
2022/04/01 10:55:14;;;;;;;5.20;4.63;;;4.40;99.90;;;;;;5016162;28;20447;-48
2022/04/01 10:57:44;;;;;;;6.10;5.47;;;4.30;99.90;;;;;;5015810;28;20467;-48
2022/04/01 11:00:14;;;;;;;4.70;4.30;;;4.10;99.90;;;;;;5015711;28;20860;-48
2022/04/01 11:02:43;;;;;;;5.73;5.20;;;4.10;99.90;;;;;;5015909;28;20447;-48
2022/04/01 11:05:24;;;;;;;4.50;4.17;;;4.10;99.90;;;;;;5015544;28;20449;-48
2022/04/01 11:08:16;;;;;;;5.70;5.20;;;3.90;99.90;;;;;;5004979;28;20566;-49
2022/04/01 11:11:06;;;;;;;4.60;3.73;;;4.10;99.90;;;;;;4999897;28;20494;-48
2022/04/01 11:13:34;;;;;;;4.67;4.20;;;4.10;99.90;;;;;;4994563;28;20476;-53
2022/04/01 11:16:15;;;;;;;4.50;4.10;;;4.20;99.90;;;;;;5008056;28;20458;-52
2022/04/01 11:19:11;;;;;;;6.33;5.07;;;4.00;99.90;;;;;;4999279;28;20475;-53
2022/04/01 11:21:39;;;;;;;5.00;4.60;;;3.80;99.90;;;;;;5006316;28;20486;-52
2022/04/01 11:24:29;;;;;;;5.17;4.77;;;3.80;99.90;;;;;;5014866;28;20451;-50
2022/04/01 11:27:07;;;;;;;5.93;5.43;;;3.70;99.90;;;;;;5014040;28;20516;-55
2022/04/01 11:29:34;;;;;;;4.93;4.53;;;3.70;99.90;;;;;;5015318;28;20808;-54
2022/04/01 11:32:08;;;;;;;4.80;4.40;;;3.80;99.90;;;;;;5014415;28;20632;-51
2022/04/01 11:34:57;;;;;;;5.47;4.97;;;3.70;99.90;;;;;;5013286;28;20424;-53
2022/04/01 11:37:26;;;;;;;5.80;5.30;;;3.80;99.90;;;;;;5014856;28;20471;-56
2022/04/01 11:39:53;;;;;;;5.80;5.30;;;4.00;99.90;;;;;;5014634;28;20455;-55
2022/04/01 11:42:22;;;;;;;5.77;5.17;;;4.20;99.90;;;;;;5014070;28;20458;-53
2022/04/01 11:44:58;;;;;;;5.30;4.87;;;4.10;99.90;;;;;;4996262;28;20455;-56
2022/04/01 11:47:34;;;;;;;5.73;5.30;;;4.20;99.90;;;;;;4994010;28;20503;-52
2022/04/01 11:50:12;;;;;;;5.93;5.43;;;4.30;99.90;;;;;;5008485;28;20461;-50
2022/04/01 11:52:40;;;;;;;4.50;4.10;;;4.40;99.90;;;;;;5002652;28;20547;-51
2022/04/01 11:55:17;;;;;;;5.77;5.37;;;4.40;99.90;;;;;;5009075;28;20487;-55
2022/04/01 11:57:46;;;;;;;5.57;5.17;;;4.40;99.90;;;;;;5007295;28;20562;-55
2022/04/01 12:00:15;;;;;;;5.77;5.27;;;4.50;99.90;;;;;;4999894;28;20490;-56
2022/04/01 12:02:44;;;;;;;5.63;5.17;;;4.60;99.90;;;;;;5004172;28;20484;-57
2022/04/01 12:05:13;;;;;;;6.37;5.80;;;4.60;99.90;;;;;;5006612;28;20459;-55
2022/04/01 12:10:27;;;;;;;5.40;5.00;;;4.70;99.90;;;;;;5008965;28;20490;-56
2022/04/01 12:12:58;;;;;;;5.63;5.13;;;4.80;99.90;;;;;;5008446;28;21238;-55
2022/04/01 12:15:35;;;;;;;6.30;5.70;;;4.50;99.90;;;;;;5009608;28;20454;-55
2022/04/01 12:18:05;;;;;;;6.70;6.10;;;4.50;99.90;;;;;;5005899;28;20474;-53
2022/04/01 12:20:33;;;;;;;6.40;5.80;;;4.50;99.90;;;;;;5007467;28;20455;-57
2022/04/01 12:23:02;;;;;;;6.77;6.17;;;4.40;99.90;;;;;;5002148;28;20443;-51
2022/04/01 12:25:31;;;;;;;7.43;6.73;;;4.10;99.90;;;;;;5011026;28;20463;-56
2022/04/01 12:28:02;;;;;;;8.30;6.80;;;4.20;99.90;;;;;;5006329;28;20965;-49
2022/04/01 12:30:31;;;;;;;7.13;6.43;;;4.40;99.90;;;;;;5003658;28;20451;-50
2022/04/01 12:33:01;;;;;;;6.70;6.10;;;4.50;99.90;;;;;;5010236;28;20490;-54
2022/04/01 12:35:28;;;;;;;6.67;6.07;;;4.40;99.90;;;;;;5008194;28;20463;-57
2022/04/01 12:38:07;;;;;;;7.30;6.70;;;4.50;99.90;;;;;;5001528;28;20518;-54
2022/04/01 12:40:35;;;;;;;8.03;7.33;;;4.50;99.90;;;;;;5003941;28;20467;-57
2022/04/01 12:43:04;;;;;;;8.53;7.83;;;4.50;99.90;;;;;;5003588;28;20448;-56
2022/04/01 12:45:31;;;;;;;7.30;6.70;;;4.40;99.90;;;;;;5004572;28;20788;-59
2022/04/01 12:47:59;;;;;;;6.70;6.20;;;4.60;99.90;;;;;;5003504;28;21045;-53
2022/04/01 12:50:34;;;;;;;7.43;6.73;;;4.60;99.90;;;;;;5010836;28;20463;-57
2022/04/01 12:53:12;;;;;;;8.10;7.30;;;4.80;99.90;;;;;;5010439;28;20485;-55
2022/04/01 12:55:40;;;;;;;7.50;6.70;;;4.70;99.90;;;;;;5004150;28;20461;-58
2022/04/01 12:58:14;;;;;;;7.10;6.50;;;4.60;99.90;;;;;;5003184;28;20485;-59
2022/04/01 13:00:41;;;;;;;8.10;7.33;;;4.70;99.90;;;;;;5009285;28;20533;-55
2022/04/01 13:03:09;;;;;;;8.30;7.60;;;4.70;99.90;;;;;;5009902;28;20443;-53
2022/04/01 13:05:38;;;;;;;7.20;6.60;;;4.80;99.90;;;;;;5009624;28;20450;-59
2022/04/01 13:08:10;;;;;;;7.73;7.00;;;4.80;99.90;;;;;;4997832;28;20523;-63